Time;durP1;ratioP1;P1;durP2;ratioP2;P2;SDS_P1;SDS_P2;PMS_P1;PMS_P2;Temp;Humidity;BMP_temperature;BMP_pressure;BME280_temperature;BME280_humidity;BME280_pressure;Samples;Min_cycle;Max_cycle;Signal;HPM_P1;HPM_P2
2021/09/26 00:01:12;;;;;;;12.33;9.80;;;21.30;99.90;;;;;;5025484;28;20953;-68
2021/09/26 00:03:37;;;;;;;11.43;10.33;;;21.40;99.90;;;;;;5026707;28;20189;-68
2021/09/26 00:06:03;;;;;;;13.43;10.30;;;21.40;99.90;;;;;;5007030;28;20227;-67
2021/09/26 00:08:29;;;;;;;11.03;9.90;;;21.50;99.90;;;;;;5027032;28;20196;-67
2021/09/26 00:10:54;;;;;;;10.90;9.80;;;21.50;99.90;;;;;;5024528;28;20552;-65
2021/09/26 00:13:23;;;;;;;12.13;10.80;;;21.30;99.90;;;;;;5027983;28;20256;-69
2021/09/26 00:15:49;;;;;;;10.10;9.20;;;21.20;99.90;;;;;;5010231;28;20215;-69
2021/09/26 00:18:14;;;;;;;10.47;9.40;;;21.20;99.90;;;;;;5023946;28;20447;-70
2021/09/26 00:20:40;;;;;;;11.73;9.40;;;21.30;99.90;;;;;;5023952;28;20616;-70
2021/09/26 00:23:06;;;;;;;10.73;9.30;;;21.10;99.90;;;;;;5025209;28;20241;-69
2021/09/26 00:25:31;;;;;;;17.67;10.40;;;21.00;99.90;;;;;;5024810;28;20267;-69
2021/09/26 00:27:57;;;;;;;10.97;9.27;;;20.80;99.90;;;;;;5027130;28;20219;-70
2021/09/26 00:30:23;;;;;;;11.13;9.90;;;20.80;99.90;;;;;;5025974;28;20281;-70
2021/09/26 00:32:48;;;;;;;10.87;9.77;;;20.90;99.90;;;;;;5023617;28;20193;-71
2021/09/26 00:35:17;;;;;;;12.80;10.23;;;21.00;99.90;;;;;;5024794;28;20208;-69
2021/09/26 00:37:42;;;;;;;13.07;9.90;;;20.90;99.90;;;;;;5023603;28;20247;-67
2021/09/26 00:40:09;;;;;;;10.27;9.27;;;21.00;99.90;;;;;;5021595;28;20432;-68
2021/09/26 00:42:35;;;;;;;9.87;8.87;;;21.00;99.90;;;;;;5028473;28;20250;-68
2021/09/26 00:45:03;;;;;;;12.17;10.07;;;21.00;99.90;;;;;;5027055;28;20519;-67
2021/09/26 00:47:29;;;;;;;12.30;9.87;;;21.10;99.90;;;;;;5007328;28;20216;-68
2021/09/26 00:49:55;;;;;;;12.13;10.80;;;21.00;99.90;;;;;;5023721;28;20809;-68
2021/09/26 00:52:21;;;;;;;12.13;10.10;;;21.10;99.90;;;;;;5026680;28;20443;-67
2021/09/26 00:54:47;;;;;;;10.40;9.30;;;21.20;99.90;;;;;;5010789;28;20184;-70
2021/09/26 00:57:13;;;;;;;11.20;9.90;;;21.10;99.90;;;;;;5022490;28;20903;-70
2021/09/26 00:59:42;;;;;;;11.33;10.23;;;21.00;99.90;;;;;;5026409;28;20473;-68
2021/09/26 01:02:07;;;;;;;12.03;9.83;;;21.00;99.90;;;;;;5026839;28;21600;-68
2021/09/26 01:04:33;;;;;;;10.50;9.40;;;20.90;99.90;;;;;;5023741;28;20553;-68
2021/09/26 01:07:25;;;;;;;11.23;9.70;;;20.90;99.90;;;;;;5026079;28;20201;-67
2021/09/26 01:09:56;;;;;;;11.03;9.50;;;20.90;99.90;;;;;;5026266;28;20747;-68
2021/09/26 01:12:41;;;;;;;12.10;10.60;;;20.90;99.90;;;;;;5025575;28;20562;-70
2021/09/26 01:15:15;;;;;;;11.53;10.33;;;21.00;99.90;;;;;;5005634;28;20872;-66
2021/09/26 01:17:44;;;;;;;11.87;10.67;;;20.90;99.90;;;;;;5026056;28;20423;-67
2021/09/26 01:20:33;;;;;;;11.10;10.00;;;20.70;99.90;;;;;;5025506;28;20418;-65
2021/09/26 01:23:05;;;;;;;11.30;10.10;;;20.70;99.90;;;;;;5024583;28;20437;-67
2021/09/26 01:25:49;;;;;;;12.87;11.53;;;20.80;99.90;;;;;;5008863;28;20443;-64
2021/09/26 01:28:39;;;;;;;12.00;10.70;;;20.80;99.90;;;;;;5025703;28;20504;-64
2021/09/26 01:31:12;;;;;;;11.43;10.23;;;20.70;99.90;;;;;;5020774;28;20449;-66
2021/09/26 01:34:00;;;;;;;16.50;11.60;;;20.80;99.90;;;;;;5026332;28;20447;-66
2021/09/26 01:36:52;;;;;;;13.20;11.20;;;20.80;99.90;;;;;;5026066;28;20491;-66
2021/09/26 01:39:21;;;;;;;11.90;10.67;;;20.80;99.90;;;;;;5020543;28;20543;-66
2021/09/26 01:41:58;;;;;;;11.93;10.73;;;20.70;99.90;;;;;;5005072;28;20526;-66
2021/09/26 01:44:39;;;;;;;15.03;11.43;;;20.60;99.90;;;;;;5027006;28;20485;-67
2021/09/26 01:47:09;;;;;;;12.90;11.23;;;20.30;99.90;;;;;;5024056;28;20463;-69
2021/09/26 01:49:44;;;;;;;15.80;11.10;;;20.50;99.90;;;;;;5024896;28;20454;-69
2021/09/26 01:52:22;;;;;;;11.37;10.07;;;20.40;99.90;;;;;;5009051;28;20448;-69
2021/09/26 01:54:48;;;;;;;12.53;11.07;;;20.40;99.90;;;;;;5021367;28;20819;-69
2021/09/26 01:57:20;;;;;;;11.83;10.60;;;20.50;99.90;;;;;;5002282;28;20544;-69
2021/09/26 02:00:00;;;;;;;12.83;11.20;;;20.40;99.90;;;;;;5026942;28;20438;-68
2021/09/26 02:02:27;;;;;;;13.70;11.20;;;20.40;99.90;;;;;;5023596;28;20457;-69
2021/09/26 02:05:00;;;;;;;12.23;10.40;;;20.50;99.90;;;;;;5025807;28;20427;-69
2021/09/26 02:07:42;;;;;;;12.93;11.10;;;20.40;99.90;;;;;;5024210;28;20995;-67
2021/09/26 02:10:08;;;;;;;14.23;10.30;;;20.30;99.90;;;;;;5022440;28;20423;-67
2021/09/26 02:12:34;;;;;;;12.00;10.73;;;20.30;99.90;;;;;;5005634;28;21059;-67
2021/09/26 02:15:07;;;;;;;10.60;9.50;;;20.40;99.90;;;;;;5025502;28;20470;-66
2021/09/26 02:17:34;;;;;;;11.00;9.90;;;20.40;99.90;;;;;;5023277;28;20443;-66
2021/09/26 02:20:02;;;;;;;10.13;9.13;;;20.30;99.90;;;;;;5005033;28;20428;-66
2021/09/26 02:22:32;;;;;;;10.80;9.70;;;20.30;99.90;;;;;;5026267;28;20518;-65
2021/09/26 02:25:00;;;;;;;13.07;10.07;;;20.30;99.90;;;;;;5021205;28;20435;-66
2021/09/26 02:27:27;;;;;;;11.07;9.93;;;20.20;99.90;;;;;;5025015;28;20455;-66
2021/09/26 02:30:40;;;;;;;11.47;10.30;;;20.20;99.90;;;;;;5025662;28;20477;-64
2021/09/26 02:33:06;;;;;;;11.50;9.20;;;20.10;99.90;;;;;;5024865;28;20963;-69
2021/09/26 02:35:31;;;;;;;11.57;9.53;;;20.00;99.90;;;;;;5024113;28;20458;-69
2021/09/26 02:37:57;;;;;;;13.40;9.80;;;20.00;99.90;;;;;;5025097;28;20215;-69
2021/09/26 02:40:23;;;;;;;11.77;9.47;;;19.90;99.90;;;;;;5021687;28;20223;-69
2021/09/26 02:43:10;;;;;;;11.50;9.50;;;20.00;99.90;;;;;;5024354;28;20183;-69
2021/09/26 02:45:51;;;;;;;9.77;8.77;;;20.00;99.90;;;;;;5025449;28;20407;-69
2021/09/26 02:48:25;;;;;;;15.13;12.20;;;19.90;99.90;;;;;;5022755;28;20800;-69
2021/09/26 02:50:52;;;;;;;12.30;9.57;;;20.00;99.90;;;;;;5007041;28;20454;-68
2021/09/26 02:53:19;;;;;;;10.50;9.33;;;19.90;99.90;;;;;;5024064;28;20439;-68
2021/09/26 02:55:47;;;;;;;11.70;9.33;;;20.00;99.90;;;;;;5020704;28;20471;-68
2021/09/26 02:58:13;;;;;;;14.70;10.90;;;20.00;99.90;;;;;;5024179;28;20499;-67
2021/09/26 03:00:50;;;;;;;12.30;9.17;;;20.00;99.90;;;;;;5023581;28;20435;-67
2021/09/26 03:03:22;;;;;;;10.37;9.27;;;19.90;99.90;;;;;;5003728;28;20424;-66
2021/09/26 03:05:50;;;;;;;12.03;10.47;;;19.80;99.90;;;;;;5026973;28;20447;-66
2021/09/26 03:08:16;;;;;;;10.60;9.50;;;19.80;99.90;;;;;;5021999;28;20459;-66
2021/09/26 03:10:45;;;;;;;11.70;9.23;;;19.80;99.90;;;;;;5024884;28;20430;-67
2021/09/26 03:13:11;;;;;;;11.97;9.60;;;19.80;99.90;;;;;;5023054;28;20472;-66
2021/09/26 03:15:37;;;;;;;9.47;8.60;;;19.70;99.90;;;;;;5022903;28;20920;-67
2021/09/26 03:18:03;;;;;;;10.17;9.00;;;19.80;99.90;;;;;;5022109;28;20458;-66
2021/09/26 03:20:29;;;;;;;12.87;9.00;;;19.80;99.90;;;;;;5025789;28;20422;-66
2021/09/26 03:22:55;;;;;;;11.43;9.60;;;19.70;99.90;;;;;;5006118;28;20942;-69
2021/09/26 03:25:27;;;;;;;9.27;8.37;;;19.60;99.90;;;;;;5023380;28;20602;-70
2021/09/26 03:27:55;;;;;;;10.67;9.27;;;19.50;99.90;;;;;;5024183;28;20979;-69
2021/09/26 03:30:21;;;;;;;10.70;8.87;;;19.40;99.90;;;;;;5022916;28;20435;-66
2021/09/26 03:32:46;;;;;;;9.77;8.77;;;19.40;99.90;;;;;;5009058;28;20438;-66
2021/09/26 03:35:13;;;;;;;11.83;8.90;;;19.40;99.90;;;;;;5023789;28;21237;-66
2021/09/26 03:37:38;;;;;;;9.67;8.67;;;19.50;99.90;;;;;;5025925;28;20268;-68
2021/09/26 03:40:07;;;;;;;10.10;8.63;;;19.40;99.90;;;;;;5023179;28;20416;-67
2021/09/26 03:42:34;;;;;;;8.80;7.80;;;19.40;99.90;;;;;;5022653;28;20192;-67
2021/09/26 03:45:03;;;;;;;14.20;9.73;;;19.50;99.90;;;;;;5026463;28;20867;-68
2021/09/26 03:47:29;;;;;;;9.50;8.50;;;19.40;99.90;;;;;;5011030;28;20969;-68
2021/09/26 03:49:54;;;;;;;12.17;8.50;;;19.50;99.90;;;;;;5028189;28;20463;-66
2021/09/26 03:52:20;;;;;;;8.70;7.80;;;19.30;99.90;;;;;;5028104;28;20203;-67
2021/09/26 03:54:50;;;;;;;10.57;9.43;;;19.40;99.90;;;;;;5024624;28;20876;-66
2021/09/26 03:57:17;;;;;;;10.77;9.17;;;19.20;99.90;;;;;;5026745;28;20204;-68
2021/09/26 03:59:43;;;;;;;9.20;8.30;;;19.20;99.90;;;;;;5026243;28;20822;-68
2021/09/26 04:02:09;;;;;;;9.30;8.00;;;19.20;99.90;;;;;;5025308;28;20450;-65
2021/09/26 04:04:36;;;;;;;9.60;8.30;;;19.30;99.90;;;;;;5027967;28;20188;-64
2021/09/26 04:07:02;;;;;;;12.23;8.70;;;19.20;99.90;;;;;;5025013;28;20442;-64
2021/09/26 04:09:28;;;;;;;10.30;8.10;;;19.20;99.90;;;;;;5025600;28;20479;-65
2021/09/26 04:11:53;;;;;;;11.80;8.40;;;19.20;99.90;;;;;;5025434;28;20469;-65
2021/09/26 04:14:19;;;;;;;10.40;9.30;;;19.20;99.90;;;;;;5024910;28;20272;-64
2021/09/26 04:16:46;;;;;;;9.47;8.40;;;19.30;99.90;;;;;;5007577;28;20216;-65
2021/09/26 04:19:11;;;;;;;9.97;8.47;;;19.30;99.90;;;;;;5011775;28;20722;-64
2021/09/26 04:21:37;;;;;;;9.37;7.90;;;19.40;99.90;;;;;;5026477;28;20526;-64
2021/09/26 04:24:05;;;;;;;10.50;8.40;;;19.30;99.90;;;;;;5024664;28;20651;-64
2021/09/26 04:26:31;;;;;;;11.27;8.03;;;19.30;99.90;;;;;;5013077;28;20212;-70
2021/09/26 04:28:57;;;;;;;10.93;9.07;;;19.40;99.90;;;;;;5023445;28;20481;-67
2021/09/26 04:31:24;;;;;;;12.20;8.83;;;19.40;99.90;;;;;;5028853;28;20189;-67
2021/09/26 04:33:50;;;;;;;12.47;10.57;;;19.40;99.90;;;;;;5009025;28;20224;-69
2021/09/26 04:36:16;;;;;;;10.47;8.80;;;19.30;99.90;;;;;;5023656;28;20573;-69
2021/09/26 04:38:41;;;;;;;10.20;9.13;;;19.10;99.90;;;;;;5027875;28;20801;-69
2021/09/26 04:41:07;;;;;;;10.53;9.40;;;19.10;99.90;;;;;;5024703;28;20185;-64
2021/09/26 04:43:34;;;;;;;10.20;9.20;;;19.20;99.90;;;;;;5009095;28;20188;-69
2021/09/26 04:46:11;;;;;;;9.87;8.70;;;19.20;99.90;;;;;;5007592;28;20200;-69
2021/09/26 04:48:39;;;;;;;10.27;8.90;;;19.00;99.90;;;;;;5008677;28;20462;-69
2021/09/26 04:51:05;;;;;;;9.50;8.57;;;18.60;99.90;;;;;;5027206;28;20554;-69
2021/09/26 04:53:30;;;;;;;9.10;7.60;;;18.60;99.90;;;;;;5024604;28;20441;-70
2021/09/26 04:55:56;;;;;;;11.93;8.60;;;18.60;99.90;;;;;;5024563;28;20243;-69
2021/09/26 04:58:25;;;;;;;14.97;8.83;;;18.70;99.90;;;;;;5026511;28;20191;-65
2021/09/26 05:00:50;;;;;;;9.70;8.70;;;18.70;99.90;;;;;;5022333;28;20184;-65
2021/09/26 05:03:16;;;;;;;9.33;8.43;;;18.70;99.90;;;;;;5027875;28;20502;-65
2021/09/26 05:05:42;;;;;;;9.53;8.60;;;18.80;99.90;;;;;;5024587;28;20176;-64
2021/09/26 05:08:08;;;;;;;10.37;8.17;;;18.80;99.90;;;;;;5025915;28;20216;-65
2021/09/26 05:10:34;;;;;;;8.63;7.70;;;18.70;99.90;;;;;;5026831;28;20679;-64
2021/09/26 05:13:02;;;;;;;12.47;8.10;;;18.70;99.90;;;;;;5025430;28;20197;-66
2021/09/26 05:15:28;;;;;;;10.93;8.73;;;18.70;99.90;;;;;;5024122;28;20922;-63
2021/09/26 05:17:54;;;;;;;9.23;8.23;;;18.90;99.90;;;;;;5026016;28;20451;-64
2021/09/26 05:20:20;;;;;;;8.57;7.67;;;18.80;99.90;;;;;;5023665;28;20189;-63
2021/09/26 05:22:49;;;;;;;9.57;8.67;;;18.60;99.90;;;;;;5026287;28;20504;-63
2021/09/26 05:25:15;;;;;;;9.43;8.50;;;18.40;99.90;;;;;;5026899;28;20234;-64
2021/09/26 05:27:42;;;;;;;9.43;8.43;;;18.40;99.90;;;;;;5026672;28;20447;-69
2021/09/26 05:30:08;;;;;;;8.93;8.03;;;18.50;99.90;;;;;;5025349;28;20568;-69
2021/09/26 05:32:38;;;;;;;10.40;7.20;;;18.50;99.90;;;;;;5022615;28;20451;-68
2021/09/26 05:35:04;;;;;;;8.37;7.57;;;18.60;99.90;;;;;;5023884;28;20411;-69
2021/09/26 05:37:30;;;;;;;9.47;8.47;;;18.80;99.90;;;;;;5026517;28;20447;-69
2021/09/26 05:39:55;;;;;;;9.83;8.90;;;18.70;99.90;;;;;;5021583;28;20430;-69
2021/09/26 05:42:21;;;;;;;10.23;8.20;;;18.70;99.90;;;;;;5025069;28;20246;-69
2021/09/26 05:44:47;;;;;;;12.50;8.20;;;18.60;99.90;;;;;;5006976;28;20245;-68
2021/09/26 05:47:14;;;;;;;9.13;8.20;;;18.70;99.90;;;;;;5023714;28;20269;-69
2021/09/26 05:49:41;;;;;;;8.73;7.90;;;18.70;99.90;;;;;;5026784;28;20193;-66
2021/09/26 05:52:08;;;;;;;8.97;8.07;;;18.70;99.90;;;;;;5023378;28;20415;-66
2021/09/26 05:54:36;;;;;;;10.97;8.43;;;18.70;99.90;;;;;;5023339;28;20817;-66
2021/09/26 05:57:01;;;;;;;8.00;7.20;;;18.70;99.90;;;;;;5024381;28;20988;-66
2021/09/26 05:59:27;;;;;;;9.73;8.47;;;18.70;99.90;;;;;;5022869;28;20431;-66
2021/09/26 06:01:55;;;;;;;9.50;8.30;;;18.50;99.90;;;;;;5023251;28;20203;-67
2021/09/26 06:04:21;;;;;;;9.80;8.80;;;18.40;99.90;;;;;;5006849;28;20180;-67
2021/09/26 06:06:46;;;;;;;10.40;7.80;;;18.60;99.90;;;;;;5021713;28;20957;-68
2021/09/26 06:09:12;;;;;;;8.60;7.43;;;18.80;99.90;;;;;;5024978;28;20242;-68
2021/09/26 06:11:50;;;;;;;8.90;8.00;;;19.00;99.90;;;;;;5024593;28;20255;-67
2021/09/26 06:14:15;;;;;;;9.00;8.10;;;18.90;99.90;;;;;;5021393;28;20196;-64
2021/09/26 06:16:41;;;;;;;8.37;7.43;;;18.90;99.90;;;;;;5024914;28;20470;-65
2021/09/26 06:19:07;;;;;;;11.43;8.47;;;18.80;99.90;;;;;;5022350;28;20192;-64
2021/09/26 06:21:33;;;;;;;10.20;7.43;;;18.70;99.90;;;;;;5023924;28;20567;-69
2021/09/26 06:23:58;;;;;;;10.00;8.20;;;18.90;99.90;;;;;;5025948;28;20451;-69
2021/09/26 06:26:25;;;;;;;9.30;8.23;;;18.60;99.90;;;;;;5023338;28;20275;-69
2021/09/26 06:28:53;;;;;;;9.57;8.00;;;18.60;99.90;;;;;;5021993;28;20177;-69
2021/09/26 06:31:20;;;;;;;9.53;8.40;;;18.70;99.90;;;;;;5002091;28;20432;-68
2021/09/26 06:33:46;;;;;;;9.23;6.93;;;18.80;99.90;;;;;;5008017;28;20489;-67
2021/09/26 06:36:12;;;;;;;11.50;8.80;;;18.80;99.90;;;;;;5024230;28;20780;-67
2021/09/26 06:38:38;;;;;;;12.53;7.60;;;18.90;99.90;;;;;;5026653;28;20203;-68
2021/09/26 06:41:04;;;;;;;12.00;8.87;;;18.80;99.90;;;;;;5021303;28;20659;-68
2021/09/26 06:43:29;;;;;;;8.60;7.17;;;19.00;99.90;;;;;;5025450;28;20203;-66
2021/09/26 06:45:55;;;;;;;8.77;7.60;;;19.00;99.90;;;;;;5024090;28;20442;-66
2021/09/26 06:48:21;;;;;;;9.03;8.10;;;18.90;99.90;;;;;;5021683;28;20208;-66
2021/09/26 06:50:49;;;;;;;10.53;7.67;;;18.80;99.90;;;;;;5026371;28;20188;-65
2021/09/26 06:53:16;;;;;;;16.03;7.90;;;18.90;99.90;;;;;;5025266;28;20187;-65
2021/09/26 06:55:41;;;;;;;11.77;8.00;;;19.10;99.90;;;;;;5023635;28;20524;-65
2021/09/26 06:58:07;;;;;;;10.20;7.87;;;19.00;99.90;;;;;;5023133;28;20466;-66
2021/09/26 07:00:32;;;;;;;8.53;7.53;;;19.10;99.90;;;;;;5023547;28;20733;-67
2021/09/26 07:02:58;;;;;;;10.20;8.30;;;19.30;99.90;;;;;;5022977;28;20185;-66
2021/09/26 07:05:24;;;;;;;15.57;12.60;;;19.30;99.90;;;;;;5025308;28;20513;-67
2021/09/26 07:07:52;;;;;;;18.60;15.93;;;19.20;99.90;;;;;;5022631;28;20212;-67
2021/09/26 07:10:19;;;;;;;12.30;9.37;;;19.30;99.90;;;;;;5021273;28;20739;-67
2021/09/26 07:12:46;;;;;;;11.27;7.67;;;19.40;99.90;;;;;;5004953;28;20514;-67
2021/09/26 07:15:12;;;;;;;8.87;8.03;;;19.30;99.90;;;;;;5021455;28;20936;-67
2021/09/26 07:17:37;;;;;;;9.90;7.77;;;19.40;99.90;;;;;;5007302;28;20459;-67
2021/09/26 07:20:03;;;;;;;15.13;8.50;;;19.40;99.90;;;;;;5030196;28;20423;-65
2021/09/26 07:22:29;;;;;;;8.40;7.70;;;19.30;99.90;;;;;;5027323;28;20192;-63
2021/09/26 07:25:01;;;;;;;12.10;6.97;;;19.30;99.90;;;;;;5029392;28;20435;-63
2021/09/26 07:27:28;;;;;;;7.50;6.20;;;19.50;99.90;;;;;;5011025;28;20209;-66
2021/09/26 07:29:55;;;;;;;13.93;8.20;;;19.70;99.90;;;;;;5026407;28;20965;-66
2021/09/26 07:32:21;;;;;;;10.87;7.70;;;19.80;99.90;;;;;;5027809;28;20463;-69
2021/09/26 07:34:47;;;;;;;8.87;7.20;;;19.80;99.90;;;;;;5008953;28;20955;-69
2021/09/26 07:37:13;;;;;;;8.83;7.00;;;19.70;99.90;;;;;;5024848;28;20463;-69
2021/09/26 07:39:39;;;;;;;8.33;7.47;;;19.60;99.90;;;;;;5025475;28;20187;-67
2021/09/26 07:42:06;;;;;;;12.60;7.27;;;19.40;99.90;;;;;;5025977;28;20733;-67
2021/09/26 07:44:32;;;;;;;10.57;7.67;;;19.20;99.90;;;;;;5025230;28;20423;-67
2021/09/26 07:46:58;;;;;;;7.97;7.20;;;19.30;99.90;;;;;;5025272;28;20454;-67
2021/09/26 07:49:26;;;;;;;8.37;6.73;;;19.30;99.90;;;;;;5010100;28;20450;-66
2021/09/26 07:51:53;;;;;;;8.77;7.53;;;19.30;99.90;;;;;;5026875;28;20180;-64
2021/09/26 07:54:19;;;;;;;7.83;6.83;;;19.40;99.90;;;;;;5007647;28;20851;-67
2021/09/26 07:56:45;;;;;;;12.83;7.57;;;19.50;99.90;;;;;;5027662;28;20574;-68
2021/09/26 07:59:11;;;;;;;9.67;7.37;;;19.50;99.90;;;;;;5027568;28;20169;-67
2021/09/26 08:01:37;;;;;;;11.63;7.63;;;19.60;99.90;;;;;;5024823;28;20510;-65
2021/09/26 08:04:03;;;;;;;9.40;6.77;;;19.70;99.90;;;;;;5030739;28;20463;-64
2021/09/26 08:06:29;;;;;;;10.93;7.50;;;19.70;99.90;;;;;;5028159;28;20493;-67
2021/09/26 08:08:56;;;;;;;9.43;7.70;;;19.70;99.90;;;;;;5009907;28;20470;-67
2021/09/26 08:11:22;;;;;;;9.60;7.80;;;19.80;99.90;;;;;;5011681;28;20481;-65
2021/09/26 08:13:51;;;;;;;8.90;7.70;;;19.80;99.90;;;;;;5025183;28;21384;-65
2021/09/26 08:16:17;;;;;;;9.07;7.63;;;19.90;99.90;;;;;;5027115;28;21112;-64
2021/09/26 08:18:45;;;;;;;7.30;6.70;;;19.90;99.90;;;;;;5008858;28;20455;-64
2021/09/26 08:21:10;;;;;;;13.57;7.50;;;20.10;99.90;;;;;;5027262;28;20189;-69
2021/09/26 08:23:36;;;;;;;11.60;7.27;;;20.30;99.90;;;;;;5027775;28;20445;-69
2021/09/26 08:26:05;;;;;;;10.80;8.13;;;20.30;99.90;;;;;;5025465;28;20204;-70
2021/09/26 08:28:31;;;;;;;10.43;7.50;;;20.20;99.90;;;;;;5007241;28;20671;-64
2021/09/26 08:30:58;;;;;;;10.27;7.67;;;20.30;99.90;;;;;;5025967;28;20526;-65
2021/09/26 08:33:24;;;;;;;10.70;7.47;;;20.40;99.90;;;;;;5027405;28;20215;-67
2021/09/26 08:35:49;;;;;;;11.47;7.40;;;20.40;99.90;;;;;;5009049;28;20476;-67
2021/09/26 08:38:15;;;;;;;12.77;9.20;;;20.40;99.90;;;;;;5027800;28;20210;-67
2021/09/26 08:40:41;;;;;;;10.23;6.73;;;20.40;99.90;;;;;;5021496;28;20223;-69
2021/09/26 08:43:08;;;;;;;12.47;8.07;;;20.40;99.90;;;;;;5026586;28;20231;-66
2021/09/26 08:45:39;;;;;;;11.73;7.03;;;20.40;99.90;;;;;;5007939;28;20204;-66
2021/09/26 08:48:09;;;;;;;9.47;7.67;;;20.40;99.90;;;;;;5025976;28;20443;-66
2021/09/26 08:50:34;;;;;;;12.97;6.43;;;20.10;99.90;;;;;;5024519;28;20439;-68
2021/09/26 08:53:02;;;;;;;12.73;8.50;;;20.10;99.90;;;;;;5025488;28;20415;-68
2021/09/26 08:55:28;;;;;;;9.93;7.70;;;19.90;99.90;;;;;;5025795;28;20668;-64
2021/09/26 08:57:54;;;;;;;11.30;7.67;;;19.90;99.90;;;;;;5025718;28;20455;-65
2021/09/26 09:00:20;;;;;;;11.83;7.57;;;20.10;99.90;;;;;;5025509;28;20350;-64
2021/09/26 09:02:46;;;;;;;10.73;7.60;;;20.20;99.90;;;;;;5007178;28;20454;-64
2021/09/26 09:05:32;;;;;;;12.67;7.50;;;20.20;99.90;;;;;;5026138;28;20434;-65
2021/09/26 09:08:11;;;;;;;9.53;8.47;;;20.10;99.90;;;;;;5026255;28;20208;-68
2021/09/26 09:10:39;;;;;;;8.90;7.80;;;20.00;99.90;;;;;;5025627;28;20430;-70
2021/09/26 09:13:10;;;;;;;11.27;8.40;;;19.90;99.90;;;;;;5025631;28;20434;-69
2021/09/26 09:15:41;;;;;;;8.57;7.77;;;20.00;99.90;;;;;;5023348;28;20479;-69
2021/09/26 09:18:07;;;;;;;11.60;8.57;;;20.00;99.90;;;;;;5010431;28;20462;-64
2021/09/26 09:20:34;;;;;;;11.50;7.63;;;19.90;99.90;;;;;;5024651;28;20653;-66
2021/09/26 09:23:11;;;;;;;11.30;8.70;;;20.00;99.90;;;;;;5007367;28;20439;-65
2021/09/26 09:25:47;;;;;;;12.57;10.90;;;20.10;99.90;;;;;;5009566;28;20526;-65
2021/09/26 09:28:17;;;;;;;8.77;7.87;;;20.10;99.90;;;;;;5024052;28;20889;-66
2021/09/26 09:30:49;;;;;;;11.83;8.00;;;20.10;99.90;;;;;;5022051;28;20986;-68
2021/09/26 09:33:16;;;;;;;8.80;8.00;;;20.20;99.90;;;;;;5025865;28;20794;-67
2021/09/26 09:35:53;;;;;;;11.43;7.80;;;20.20;99.90;;;;;;5021410;28;20471;-68
2021/09/26 09:38:34;;;;;;;10.60;8.40;;;20.20;99.90;;;;;;5007152;28;20530;-69
2021/09/26 09:41:00;;;;;;;10.07;8.20;;;20.10;99.90;;;;;;5008539;28;20407;-67
2021/09/26 09:43:29;;;;;;;12.20;9.30;;;20.10;99.90;;;;;;5024428;28;20528;-69
2021/09/26 09:46:03;;;;;;;11.73;8.60;;;20.20;99.90;;;;;;5006916;28;20204;-69
2021/09/26 09:48:31;;;;;;;9.10;8.20;;;20.10;99.90;;;;;;5008355;28;20459;-70
2021/09/26 09:51:07;;;;;;;8.80;7.70;;;20.10;99.90;;;;;;5024094;28;20423;-69
2021/09/26 09:53:38;;;;;;;14.63;9.60;;;20.10;99.90;;;;;;5025285;28;20426;-69
2021/09/26 09:56:18;;;;;;;11.50;9.43;;;20.10;99.90;;;;;;5022740;28;20475;-70
2021/09/26 09:58:48;;;;;;;9.47;8.53;;;20.20;99.90;;;;;;5006755;28;20525;-68
2021/09/26 10:01:35;;;;;;;12.77;8.80;;;20.20;99.90;;;;;;5027075;28;20811;-65
2021/09/26 10:04:03;;;;;;;10.50;7.97;;;20.30;99.90;;;;;;5023002;28;20438;-64
2021/09/26 10:06:46;;;;;;;10.37;8.87;;;20.40;99.90;;;;;;5005983;28;20442;-64
2021/09/26 10:09:23;;;;;;;11.23;9.23;;;20.40;99.90;;;;;;5025158;28;20470;-65
2021/09/26 10:12:00;;;;;;;11.27;9.50;;;20.20;99.90;;;;;;5025189;28;20458;-67
2021/09/26 10:14:35;;;;;;;17.53;10.50;;;20.40;99.90;;;;;;5025129;28;20434;-67
2021/09/26 10:17:08;;;;;;;15.33;10.20;;;20.30;99.90;;;;;;5005998;28;20532;-69
2021/09/26 10:19:37;;;;;;;12.70;10.20;;;20.30;99.90;;;;;;5021484;28;20473;-70
2021/09/26 10:22:04;;;;;;;14.30;10.10;;;20.50;99.90;;;;;;5023590;28;20462;-64
2021/09/26 10:24:33;;;;;;;12.57;9.73;;;20.60;99.90;;;;;;5012172;28;20908;-65
2021/09/26 10:27:03;;;;;;;9.63;8.67;;;20.70;99.90;;;;;;5023761;28;20794;-66
2021/09/26 10:29:34;;;;;;;15.53;9.87;;;20.80;99.90;;;;;;5021750;28;20470;-69
2021/09/26 10:32:03;;;;;;;14.03;9.93;;;21.00;99.90;;;;;;5007385;28;20432;-70
2021/09/26 10:34:30;;;;;;;13.40;9.90;;;21.00;99.90;;;;;;5023122;28;20435;-69
2021/09/26 10:36:59;;;;;;;11.13;9.40;;;21.00;99.90;;;;;;5026745;28;20887;-65
2021/09/26 10:39:26;;;;;;;12.13;9.80;;;21.10;99.90;;;;;;5023609;28;20457;-65
2021/09/26 10:42:14;;;;;;;15.47;8.73;;;21.20;99.90;;;;;;5022599;28;20486;-65
2021/09/26 10:44:43;;;;;;;9.83;8.83;;;21.40;99.90;;;;;;5024141;28;20432;-65
2021/09/26 10:47:16;;;;;;;11.27;8.90;;;21.50;99.90;;;;;;5023527;28;20562;-66
2021/09/26 10:50:12;;;;;;;11.93;9.20;;;21.50;99.90;;;;;;5023585;28;20804;-67
2021/09/26 10:52:44;;;;;;;12.57;9.50;;;21.40;99.90;;;;;;5011953;28;20445;-65
2021/09/26 10:55:16;;;;;;;10.93;9.40;;;21.40;99.90;;;;;;5009605;28;20431;-65
2021/09/26 10:57:59;;;;;;;14.60;10.00;;;21.60;99.90;;;;;;5027521;28;20474;-64
2021/09/26 11:00:54;;;;;;;14.70;10.77;;;21.70;99.90;;;;;;5029974;28;20933;-64
2021/09/26 11:03:36;;;;;;;12.63;11.03;;;21.80;99.90;;;;;;5014566;28;20439;-64
2021/09/26 11:06:23;;;;;;;12.17;9.00;;;22.10;99.90;;;;;;5025726;28;20435;-64
2021/09/26 11:08:59;;;;;;;11.30;9.67;;;22.40;99.90;;;;;;5026439;28;20427;-64
2021/09/26 11:11:47;;;;;;;11.37;8.97;;;22.60;99.90;;;;;;5028060;28;20431;-64
2021/09/26 11:14:13;;;;;;;11.70;9.50;;;22.80;99.90;;;;;;5010221;28;20535;-64
2021/09/26 11:16:51;;;;;;;11.60;9.07;;;23.00;99.90;;;;;;5024382;28;20850;-65
2021/09/26 11:19:18;;;;;;;11.00;9.80;;;23.20;99.90;;;;;;5028357;28;20419;-64
2021/09/26 11:21:46;;;;;;;11.87;9.10;;;23.20;99.90;;;;;;5027136;28;20873;-64
2021/09/26 11:24:18;;;;;;;10.80;8.97;;;23.30;99.90;;;;;;5025915;28;20471;-65
2021/09/26 11:27:00;;;;;;;10.40;9.30;;;23.10;99.90;;;;;;5028843;28;20445;-65
2021/09/26 11:29:29;;;;;;;12.20;11.00;;;22.90;99.90;;;;;;5027241;28;20423;-65
2021/09/26 11:31:56;;;;;;;10.53;8.87;;;23.10;99.90;;;;;;5009305;28;20811;-65
2021/09/26 11:34:43;;;;;;;11.80;9.77;;;23.30;99.90;;;;;;5027403;28;20439;-65
2021/09/26 11:37:11;;;;;;;9.90;8.93;;;23.20;99.90;;;;;;5013281;28;20470;-64
2021/09/26 11:39:39;;;;;;;8.97;8.07;;;23.30;99.90;;;;;;5008291;28;20992;-65
2021/09/26 11:42:30;;;;;;;11.80;10.30;;;23.30;99.90;;;;;;5026968;28;20840;-64
2021/09/26 11:45:02;;;;;;;8.60;7.80;;;23.60;99.90;;;;;;5024980;28;20459;-65
2021/09/26 11:47:29;;;;;;;10.67;8.50;;;23.90;99.90;;;;;;5026256;28;20504;-65
2021/09/26 11:50:08;;;;;;;9.47;8.57;;;24.20;99.90;;;;;;5028213;28;20525;-67
2021/09/26 11:52:44;;;;;;;10.20;9.13;;;24.60;99.90;;;;;;5023180;28;20450;-67
2021/09/26 11:55:13;;;;;;;10.50;9.50;;;24.60;99.90;;;;;;5026418;28;20496;-68
2021/09/26 11:57:42;;;;;;;10.00;8.80;;;24.50;99.90;;;;;;5027878;28;20732;-68
2021/09/26 12:00:23;;;;;;;12.80;9.70;;;25.10;99.90;;;;;;5027784;28;20477;-66
2021/09/26 12:02:49;;;;;;;12.20;11.00;;;25.60;99.90;;;;;;5025998;28;20447;-66
2021/09/26 12:05:14;;;;;;;17.47;11.53;;;25.30;99.90;;;;;;5026070;28;20426;-66
2021/09/26 12:07:40;;;;;;;13.70;8.60;;;25.40;99.90;;;;;;5026350;28;20759;-67
2021/09/26 12:10:16;;;;;;;10.03;9.10;;;25.40;99.90;;;;;;5028141;28;20569;-65
2021/09/26 12:12:41;;;;;;;9.93;8.93;;;25.60;99.90;;;;;;5026191;28;20234;-65
2021/09/26 12:15:12;;;;;;;9.30;8.50;;;25.30;99.90;;;;;;5024528;28;20910;-70
2021/09/26 12:17:38;;;;;;;9.57;8.60;;;24.70;99.90;;;;;;5028186;28;20204;-70
2021/09/26 12:20:07;;;;;;;9.60;8.70;;;24.50;99.90;;;;;;5025563;28;20427;-70
2021/09/26 12:22:33;;;;;;;10.87;9.80;;;24.10;99.90;;;;;;5027885;28;20443;-68
2021/09/26 12:25:06;;;;;;;11.13;8.53;;;23.50;99.90;;;;;;5028180;28;20416;-68
2021/09/26 12:27:36;;;;;;;10.50;9.50;;;23.30;99.90;;;;;;5025376;28;20205;-68
2021/09/26 12:30:16;;;;;;;27.40;10.17;;;23.10;99.90;;;;;;5010473;28;20536;-68
2021/09/26 12:32:57;;;;;;;10.10;9.03;;;23.00;99.90;;;;;;5026626;28;20951;-65
2021/09/26 12:35:31;;;;;;;14.13;11.30;;;22.80;99.90;;;;;;5025980;28;20824;-65
2021/09/26 12:38:18;;;;;;;11.60;10.37;;;22.70;99.90;;;;;;5025065;28;20450;-65
2021/09/26 12:41:04;;;;;;;12.27;10.87;;;22.60;99.90;;;;;;5027533;28;20427;-68
2021/09/26 12:43:45;;;;;;;13.27;10.50;;;22.50;99.90;;;;;;5027355;28;20442;-68
2021/09/26 12:46:12;;;;;;;13.83;11.30;;;22.00;99.90;;;;;;5023675;28;20429;-68
2021/09/26 12:48:38;;;;;;;13.07;11.70;;;22.10;99.90;;;;;;5022513;28;20522;-67
2021/09/26 12:51:09;;;;;;;11.93;10.73;;;22.30;99.90;;;;;;5024176;28;20535;-68